createdAt,value
2023-01-26T00:01:21.911Z,100316.25
2023-01-26T00:03:49.439Z,100315.38
2023-01-26T00:06:19.385Z,100313.41
2023-01-26T00:08:48.417Z,100311.31
2023-01-26T00:11:17.779Z,100303.53
2023-01-26T00:13:44.357Z,100298.34
2023-01-26T00:16:13.678Z,100303.94
2023-01-26T00:18:41.678Z,100289.28
2023-01-26T00:21:11.816Z,100290.13
2023-01-26T00:23:38.489Z,100286.06
2023-01-26T00:26:10.494Z,100279.38
2023-01-26T00:28:37.030Z,100262.56
2023-01-26T00:31:24.758Z,100257.19
2023-01-26T00:33:53.554Z,100256.56
2023-01-26T00:36:20.235Z,100248.75
2023-01-26T00:38:47.130Z,100240.75
2023-01-26T00:41:32.781Z,100246.34
2023-01-26T00:43:59.615Z,100244.91
2023-01-26T00:46:26.282Z,100239.66
2023-01-26T00:48:52.829Z,100241.84
2023-01-26T00:51:19.404Z,100233.84
2023-01-26T00:53:46.167Z,100229.66
2023-01-26T00:56:14.693Z,100224.00
2023-01-26T00:58:41.237Z,100213.22
2023-01-26T01:01:08.656Z,100215.31
2023-01-26T01:03:35.310Z,100219.13
2023-01-26T01:06:01.937Z,100212.22
2023-01-26T01:08:28.468Z,100215.84
2023-01-26T01:11:09.688Z,100206.97
2023-01-26T01:13:36.319Z,100205.84
2023-01-26T01:16:11.498Z,100204.91
2023-01-26T01:18:39.028Z,100196.84
2023-01-26T01:21:13.167Z,100197.53
2023-01-26T01:23:40.458Z,100190.59
2023-01-26T01:26:07.993Z,100194.41
2023-01-26T01:28:36.035Z,100188.41
2023-01-26T01:31:09.592Z,100194.56
2023-01-26T01:33:36.360Z,100200.56
2023-01-26T01:36:08.616Z,100201.66
2023-01-26T01:38:35.222Z,100196.75
2023-01-26T01:41:01.875Z,100211.91
2023-01-26T01:43:29.207Z,100200.34
2023-01-26T01:45:56.603Z,100202.88
2023-01-26T01:48:30.724Z,100205.13
2023-01-26T01:51:05.767Z,100213.06
2023-01-26T01:53:35.864Z,100212.22
2023-01-26T01:56:07.465Z,100216.59
2023-01-26T01:58:38.507Z,100220.56
2023-01-26T02:01:05.085Z,100212.88
2023-01-26T02:03:33.874Z,100203.00
2023-01-26T02:06:28.943Z,100211.38
2023-01-26T02:08:58.405Z,100206.09
2023-01-26T02:11:40.202Z,100201.78
2023-01-26T02:14:10.391Z,100204.78
2023-01-26T02:16:39.945Z,100195.31
2023-01-26T02:19:18.114Z,100195.09
2023-01-26T02:21:47.733Z,100189.84
2023-01-26T02:24:34.801Z,100192.00
2023-01-26T02:27:02.212Z,100186.00
2023-01-26T02:29:29.377Z,100184.47
2023-01-26T02:31:56.177Z,100181.31
2023-01-26T02:34:25.142Z,100180.84
2023-01-26T02:36:59.995Z,100181.44
2023-01-26T02:39:45.876Z,100171.00
2023-01-26T02:42:31.167Z,100171.00
2023-01-26T02:44:58.063Z,100174.97
2023-01-26T02:47:24.567Z,100169.44
2023-01-26T02:49:51.161Z,100156.41
2023-01-26T02:52:20.695Z,100157.81
2023-01-26T02:55:05.392Z,100155.97
2023-01-26T02:57:34.434Z,100154.22
2023-01-26T03:00:02.185Z,100149.84
2023-01-26T03:02:28.908Z,100153.47
2023-01-26T03:04:55.382Z,100146.84
2023-01-26T03:07:21.889Z,100135.53
2023-01-26T03:09:48.428Z,100138.31
2023-01-26T03:12:15.024Z,100133.03
2023-01-26T03:14:41.620Z,100129.63
2023-01-26T03:17:08.185Z,100128.00
2023-01-26T03:19:53.083Z,100125.94
2023-01-26T03:22:37.957Z,100118.13
2023-01-26T03:25:23.272Z,100101.66
2023-01-26T03:27:50.020Z,100106.25
2023-01-26T03:30:19.022Z,100098.47
2023-01-26T03:32:45.746Z,100097.28
2023-01-26T03:35:15.169Z,100104.97
2023-01-26T03:37:46.996Z,100107.25
2023-01-26T03:40:34.549Z,100098.56
2023-01-26T03:43:26.412Z,100108.34
2023-01-26T03:46:11.849Z,100099.59
2023-01-26T03:48:57.393Z,100092.91
2023-01-26T03:51:42.441Z,100084.56
2023-01-26T03:54:27.395Z,100085.97
2023-01-26T03:56:53.931Z,100076.53
2023-01-26T03:59:38.251Z,100069.22
2023-01-26T04:02:29.160Z,100065.16
2023-01-26T04:05:14.570Z,100060.63
2023-01-26T04:07:59.815Z,100049.03
2023-01-26T04:10:27.304Z,100048.91
2023-01-26T04:13:12.048Z,100049.22
2023-01-26T04:15:57.402Z,100046.41
2023-01-26T04:18:42.296Z,100042.53
2023-01-26T04:21:26.773Z,100031.47
2023-01-26T04:23:56.566Z,100030.56
2023-01-26T04:26:34.779Z,100019.94
2023-01-26T04:29:03.138Z,100020.81
2023-01-26T04:31:29.794Z,100015.19
2023-01-26T04:33:56.774Z,100007.66
2023-01-26T04:36:23.230Z,100007.97
2023-01-26T04:38:50.625Z,100004.59
2023-01-26T04:41:17.718Z,99993.94
2023-01-26T04:43:44.300Z,99992.94
2023-01-26T04:46:11.245Z,99989.91
2023-01-26T04:48:38.452Z,99986.50
2023-01-26T04:51:08.326Z,99981.56
2023-01-26T04:53:35.017Z,99977.31
2023-01-26T04:56:01.769Z,99976.63
2023-01-26T04:58:28.382Z,99974.97
2023-01-26T05:00:58.333Z,99956.88
2023-01-26T05:03:26.391Z,99964.53
2023-01-26T05:05:54.241Z,99958.59
2023-01-26T05:08:23.630Z,99962.22
2023-01-26T05:10:51.812Z,99953.47
2023-01-26T05:13:18.570Z,99953.00
2023-01-26T05:15:45.114Z,99949.69
2023-01-26T05:18:11.731Z,99947.28
2023-01-26T05:20:38.506Z,99945.00
2023-01-26T05:23:05.167Z,99938.44
2023-01-26T05:25:31.789Z,99933.81
2023-01-26T05:27:58.407Z,99935.75
2023-01-26T05:30:24.930Z,99933.00
2023-01-26T05:32:51.526Z,99929.94
2023-01-26T05:35:18.142Z,99930.53
2023-01-26T05:37:45.785Z,99927.59
2023-01-26T05:40:13.491Z,99916.22
2023-01-26T05:42:42.272Z,99916.59
2023-01-26T05:45:09.683Z,99910.31
2023-01-26T05:47:36.627Z,99919.06
2023-01-26T05:50:04.497Z,99923.53
2023-01-26T05:52:31.192Z,99910.09
2023-01-26T05:54:58.272Z,99911.84
2023-01-26T05:57:24.969Z,99906.91
2023-01-26T05:59:51.553Z,99908.41
2023-01-26T06:02:18.103Z,99899.66
2023-01-26T06:04:44.674Z,99896.69
2023-01-26T06:07:13.696Z,99895.59
2023-01-26T06:09:41.602Z,99884.53
2023-01-26T06:12:15.534Z,99887.66
2023-01-26T06:14:42.487Z,99878.91
2023-01-26T06:17:09.241Z,99875.44
2023-01-26T06:19:36.175Z,99881.59
2023-01-26T06:22:03.028Z,99878.81
2023-01-26T06:24:30.153Z,99882.22
2023-01-26T06:26:56.787Z,99882.97
2023-01-26T06:29:23.279Z,99874.84
2023-01-26T06:31:49.815Z,99868.28
2023-01-26T06:34:16.498Z,99856.13
2023-01-26T06:36:43.744Z,99863.63
2023-01-26T06:39:12.063Z,99851.28
2023-01-26T06:41:39.224Z,99848.88
2023-01-26T06:44:06.226Z,99848.28
2023-01-26T06:46:32.698Z,99836.06
2023-01-26T06:49:02.202Z,99837.13
2023-01-26T06:51:52.284Z,99830.13
2023-01-26T06:54:18.805Z,99823.91
2023-01-26T06:56:45.838Z,99830.53
2023-01-26T06:59:12.728Z,99824.78
2023-01-26T07:01:44.478Z,99823.25
2023-01-26T07:04:11.312Z,99821.09
2023-01-26T07:06:37.945Z,99817.50
2023-01-26T07:09:05.120Z,99822.78
2023-01-26T07:11:32.784Z,99822.59
2023-01-26T07:13:59.922Z,99820.53
2023-01-26T07:16:26.732Z,99815.31
2023-01-26T07:18:57.104Z,99816.75
2023-01-26T07:21:23.760Z,99818.28
2023-01-26T07:23:52.455Z,99821.09
2023-01-26T07:26:19.330Z,99814.41
2023-01-26T07:28:46.309Z,99813.25
2023-01-26T07:31:13.390Z,99818.31
2023-01-26T07:33:40.077Z,99826.84
2023-01-26T07:36:07.092Z,99820.34
2023-01-26T07:38:34.507Z,99825.69
2023-01-26T07:41:06.246Z,99821.53
2023-01-26T07:43:34.402Z,99816.47
2023-01-26T07:46:00.964Z,99812.78
2023-01-26T07:48:29.840Z,99814.25
2023-01-26T07:51:00.416Z,99821.44
2023-01-26T07:53:29.343Z,99821.53
2023-01-26T07:56:06.567Z,99818.22
2023-01-26T07:58:33.151Z,99817.56
2023-01-26T08:01:12.047Z,99813.38
2023-01-26T08:03:39.218Z,99813.66
2023-01-26T08:06:07.267Z,99814.84
2023-01-26T08:08:34.798Z,99819.28
2023-01-26T08:11:02.841Z,99822.50
2023-01-26T08:13:35.857Z,99815.59
2023-01-26T08:16:10.752Z,99824.72
2023-01-26T08:18:43.922Z,99820.06
2023-01-26T08:21:12.091Z,99822.88
2023-01-26T08:23:38.701Z,99819.19
2023-01-26T08:26:08.466Z,99820.53
2023-01-26T08:28:35.925Z,99822.59
2023-01-26T08:31:19.765Z,99835.22
2023-01-26T08:33:49.102Z,99828.53
2023-01-26T08:36:15.930Z,99826.56
2023-01-26T08:38:43.574Z,99841.03
2023-01-26T08:41:10.547Z,99836.66
2023-01-26T08:43:37.755Z,99836.88
2023-01-26T08:46:05.095Z,99840.28
2023-01-26T08:48:31.972Z,99832.97
2023-01-26T08:51:01.152Z,99834.63
2023-01-26T08:53:31.068Z,99837.47
2023-01-26T08:55:57.569Z,99844.53
2023-01-26T08:58:24.095Z,99838.63
2023-01-26T09:00:50.948Z,99847.84
2023-01-26T09:03:17.734Z,99842.31
2023-01-26T09:05:44.261Z,99848.41
2023-01-26T09:08:10.854Z,99849.91
2023-01-26T09:10:38.949Z,99840.78
2023-01-26T09:13:06.482Z,99849.66
2023-01-26T09:15:33.151Z,99839.47
2023-01-26T09:18:01.069Z,99835.78
2023-01-26T09:20:27.941Z,99835.50
2023-01-26T09:22:54.802Z,99826.78
2023-01-26T09:25:21.988Z,99832.22
2023-01-26T09:27:48.668Z,99822.69
2023-01-26T09:30:15.878Z,99834.84
2023-01-26T09:32:42.438Z,99841.16
2023-01-26T09:35:14.105Z,99838.91
2023-01-26T09:37:42.866Z,99840.66
2023-01-26T09:40:18.101Z,99840.97
2023-01-26T09:43:06.512Z,99843.56
2023-01-26T09:45:46.489Z,99856.97
2023-01-26T09:48:22.478Z,99853.84
2023-01-26T09:51:01.474Z,99856.28
2023-01-26T09:53:51.531Z,99850.63
2023-01-26T09:56:20.250Z,99854.56
2023-01-26T09:58:55.277Z,99879.13
2023-01-26T10:01:30.019Z,99878.63
2023-01-26T10:04:03.645Z,99882.50
2023-01-26T10:06:32.177Z,99899.22
2023-01-26T10:09:14.547Z,99905.25
2023-01-26T10:11:46.107Z,99912.16
2023-01-26T10:14:35.881Z,99919.03
2023-01-26T10:17:06.063Z,99937.00
2023-01-26T10:19:55.095Z,99948.31
2023-01-26T10:22:44.636Z,99960.44
2023-01-26T10:25:28.182Z,99970.00
2023-01-26T10:27:55.065Z,99978.94
2023-01-26T10:30:22.029Z,99989.41
2023-01-26T10:32:53.410Z,99993.50
2023-01-26T10:35:23.311Z,99999.34
2023-01-26T10:37:52.940Z,100019.22
2023-01-26T10:40:20.634Z,100011.47
2023-01-26T10:42:59.000Z,100011.09
2023-01-26T10:45:29.601Z,100018.47
2023-01-26T10:48:27.222Z,100025.59
2023-01-26T10:50:55.547Z,100035.53
2023-01-26T10:53:31.109Z,100046.00
2023-01-26T10:56:15.955Z,100057.00
2023-01-26T10:58:47.543Z,100061.16
2023-01-26T11:01:16.545Z,100067.41
2023-01-26T11:03:56.746Z,100078.00
2023-01-26T11:06:28.972Z,100082.56
2023-01-26T11:09:11.053Z,100088.41
2023-01-26T11:11:38.025Z,100113.59
2023-01-26T11:14:19.454Z,100123.13
2023-01-26T11:16:57.768Z,100126.63
2023-01-26T11:19:42.495Z,100129.09
2023-01-26T11:22:17.613Z,100150.09
2023-01-26T11:25:06.729Z,100153.78
2023-01-26T11:27:39.299Z,100163.22
2023-01-26T11:30:28.796Z,100167.50
2023-01-26T11:33:01.237Z,100164.28
2023-01-26T11:35:39.880Z,100159.88
2023-01-26T11:38:22.457Z,100156.13
2023-01-26T11:40:59.436Z,100147.19
2023-01-26T11:43:32.730Z,100139.69
2023-01-26T11:46:25.029Z,100137.28
2023-01-26T11:49:16.206Z,100132.66
2023-01-26T11:51:59.351Z,100135.28
2023-01-26T11:54:48.224Z,100139.28
2023-01-26T11:57:23.508Z,100140.19
2023-01-26T11:59:58.957Z,100146.28
2023-01-26T12:02:38.421Z,100144.97
2023-01-26T12:05:22.437Z,100150.00
2023-01-26T12:08:16.219Z,100150.78
2023-01-26T12:10:56.948Z,100160.03
2023-01-26T12:13:43.754Z,100174.34
2023-01-26T12:16:43.767Z,100186.03
2023-01-26T12:19:21.888Z,100186.38
2023-01-26T12:21:50.112Z,100192.91
2023-01-26T12:25:01.111Z,100189.22
2023-01-26T12:27:40.754Z,100179.38
2023-01-26T12:30:42.621Z,100161.78
2023-01-26T12:33:11.090Z,100163.31
2023-01-26T12:35:44.484Z,100164.59
2023-01-26T12:38:25.041Z,100170.56
2023-01-26T12:41:09.680Z,100189.84
2023-01-26T12:44:10.688Z,100175.56
2023-01-26T12:46:43.994Z,100172.09
2023-01-26T12:49:25.920Z,100169.38
2023-01-26T12:52:07.692Z,100168.38
2023-01-26T12:55:01.540Z,100182.59
2023-01-26T12:57:44.903Z,100184.94
2023-01-26T13:00:19.205Z,100186.19
2023-01-26T13:02:49.196Z,100179.19
2023-01-26T13:05:35.900Z,100173.94
2023-01-26T13:08:31.203Z,100165.88
2023-01-26T13:10:59.493Z,100178.53
2023-01-26T13:13:30.473Z,100162.66
2023-01-26T13:16:15.358Z,100171.13
2023-01-26T13:18:53.376Z,100168.09
2023-01-26T13:21:42.196Z,100152.19
2023-01-26T13:24:17.994Z,100165.66
2023-01-26T13:27:08.385Z,100166.53
2023-01-26T13:29:36.171Z,100167.16
2023-01-26T13:32:09.343Z,100160.78
2023-01-26T13:34:41.201Z,100168.59
2023-01-26T13:37:31.283Z,100160.81
2023-01-26T13:40:06.260Z,100163.44
2023-01-26T13:42:48.260Z,100173.38
2023-01-26T13:45:23.984Z,100169.78
2023-01-26T13:47:53.271Z,100158.09
2023-01-26T13:50:28.715Z,100166.72
2023-01-26T13:52:55.463Z,100167.41
2023-01-26T13:55:29.521Z,100169.75
2023-01-26T13:58:18.150Z,100172.09
2023-01-26T14:01:02.801Z,100176.47
2023-01-26T14:03:31.135Z,100168.31
2023-01-26T14:06:22.652Z,100172.41
2023-01-26T14:08:55.511Z,100169.66
2023-01-26T14:11:25.171Z,100165.97
2023-01-26T14:13:56.175Z,100163.50
2023-01-26T14:16:30.659Z,100166.47
2023-01-26T14:19:16.639Z,100171.13
2023-01-26T14:21:52.726Z,100176.19
2023-01-26T14:24:26.980Z,100165.97
2023-01-26T14:26:53.778Z,100172.09
2023-01-26T14:29:26.383Z,100182.00
2023-01-26T14:31:54.623Z,100172.28
2023-01-26T14:34:23.480Z,100172.38
2023-01-26T14:37:22.938Z,100166.94
2023-01-26T14:39:49.480Z,100160.13
2023-01-26T14:42:19.203Z,100158.16
2023-01-26T14:44:46.471Z,100164.28
2023-01-26T14:47:21.973Z,100173.13
2023-01-26T14:49:59.821Z,100170.50
2023-01-26T14:52:30.035Z,100159.84
2023-01-26T14:54:59.030Z,100156.50
2023-01-26T14:57:28.207Z,100157.41
2023-01-26T14:59:58.559Z,100163.72
2023-01-26T15:02:42.716Z,100159.16
2023-01-26T15:05:14.468Z,100163.16
2023-01-26T15:07:40.909Z,100165.88
2023-01-26T15:10:36.970Z,100166.91
2023-01-26T15:13:20.151Z,100169.66
2023-01-26T15:15:49.361Z,100179.28
2023-01-26T15:18:20.808Z,100179.25
2023-01-26T15:21:00.285Z,100168.16
2023-01-26T15:23:28.659Z,100170.75
2023-01-26T15:25:56.265Z,100166.25
2023-01-26T15:28:25.979Z,100168.13
2023-01-26T15:30:55.713Z,100185.44
2023-01-26T15:33:44.582Z,100181.94
2023-01-26T15:36:24.269Z,100184.19
2023-01-26T15:38:56.277Z,100177.44
2023-01-26T15:41:22.785Z,100189.03
2023-01-26T15:43:49.264Z,100188.44
2023-01-26T15:46:15.805Z,100196.81
2023-01-26T15:48:42.501Z,100190.09
2023-01-26T15:51:17.784Z,100186.69
2023-01-26T15:53:44.332Z,100186.91
2023-01-26T15:56:16.175Z,100190.41
2023-01-26T15:58:43.356Z,100182.41
2023-01-26T16:01:21.831Z,100190.81
2023-01-26T16:03:51.397Z,100200.69
2023-01-26T16:06:30.894Z,100182.00
2023-01-26T16:08:58.041Z,100190.00
2023-01-26T16:11:37.625Z,100188.03
2023-01-26T16:14:04.641Z,100188.25
2023-01-26T16:16:32.849Z,100181.81
2023-01-26T16:18:59.492Z,100191.66
2023-01-26T16:21:33.270Z,100189.91
2023-01-26T16:24:01.438Z,100189.03
2023-01-26T16:26:28.639Z,100193.25
2023-01-26T16:28:55.416Z,100188.84
2023-01-26T16:31:25.480Z,100190.38
2023-01-26T16:33:52.197Z,100189.13
2023-01-26T16:36:19.965Z,100194.66
2023-01-26T16:38:47.329Z,100204.50
2023-01-26T16:41:24.689Z,100198.53
2023-01-26T16:43:51.340Z,100190.56
2023-01-26T16:46:17.983Z,100207.09
2023-01-26T16:48:44.499Z,100204.75
2023-01-26T16:51:18.639Z,100203.28
2023-01-26T16:53:45.416Z,100196.88
2023-01-26T16:56:13.656Z,100199.41
2023-01-26T16:58:40.979Z,100205.72
2023-01-26T17:01:16.277Z,100200.94
2023-01-26T17:03:42.824Z,100207.28
2023-01-26T17:06:10.151Z,100200.75
2023-01-26T17:08:36.739Z,100210.72
2023-01-26T17:11:03.275Z,100221.22
2023-01-26T17:13:31.413Z,100219.00
2023-01-26T17:15:58.478Z,100220.44
2023-01-26T17:18:25.628Z,100213.69
2023-01-26T17:20:52.114Z,100221.88
2023-01-26T17:23:18.705Z,100221.13
2023-01-26T17:25:45.234Z,100222.56
2023-01-26T17:28:12.242Z,100225.09
2023-01-26T17:30:38.744Z,100240.47
2023-01-26T17:33:05.263Z,100226.38
2023-01-26T17:35:31.729Z,100225.75
2023-01-26T17:37:58.262Z,100223.28
2023-01-26T17:40:24.816Z,100207.06
2023-01-26T17:42:51.379Z,100210.28
2023-01-26T17:45:17.936Z,100212.72
2023-01-26T17:47:44.547Z,100212.97
2023-01-26T17:50:11.294Z,100206.69
2023-01-26T17:52:37.783Z,100201.56
2023-01-26T17:55:06.268Z,100203.53
2023-01-26T17:57:33.635Z,100207.94
2023-01-26T18:00:00.144Z,100215.47
2023-01-26T18:02:26.735Z,100201.69
2023-01-26T18:04:53.417Z,100195.13
2023-01-26T18:07:19.904Z,100211.34
2023-01-26T18:09:46.653Z,100199.94
2023-01-26T18:12:13.239Z,100195.91
2023-01-26T18:14:39.925Z,100195.03
2023-01-26T18:17:06.511Z,100197.09
2023-01-26T18:19:33.089Z,100205.16
2023-01-26T18:21:59.667Z,100199.63
2023-01-26T18:24:26.623Z,100197.56
2023-01-26T18:26:53.466Z,100203.53
2023-01-26T18:29:20.035Z,100198.53
2023-01-26T18:31:48.125Z,100198.69
2023-01-26T18:34:16.370Z,100198.31
2023-01-26T18:36:42.922Z,100191.78
2023-01-26T18:39:13.611Z,100184.06
2023-01-26T18:41:40.855Z,100179.75
2023-01-26T18:44:08.300Z,100175.69
2023-01-26T18:46:34.809Z,100173.09
2023-01-26T18:49:02.963Z,100173.47
2023-01-26T18:51:31.824Z,100160.00
2023-01-26T18:53:58.665Z,100162.50
2023-01-26T18:56:25.852Z,100164.41
2023-01-26T18:58:54.274Z,100164.91
2023-01-26T19:01:21.711Z,100161.03
2023-01-26T19:03:54.103Z,100166.47
2023-01-26T19:06:21.955Z,100160.13
2023-01-26T19:09:00.947Z,100168.66
2023-01-26T19:11:31.139Z,100161.72
2023-01-26T19:13:58.320Z,100160.78
2023-01-26T19:16:25.708Z,100159.38
2023-01-26T19:18:54.151Z,100176.88
2023-01-26T19:21:24.096Z,100161.31
2023-01-26T19:23:52.846Z,100166.03
2023-01-26T19:26:22.279Z,100170.88
2023-01-26T19:28:50.999Z,100160.72
2023-01-26T19:31:19.806Z,100170.09
2023-01-26T19:34:01.086Z,100170.59
2023-01-26T19:36:29.551Z,100177.28
2023-01-26T19:38:56.791Z,100183.28
2023-01-26T19:41:23.966Z,100178.16
2023-01-26T19:43:50.978Z,100182.91
2023-01-26T19:46:19.392Z,100178.00
2023-01-26T19:48:46.339Z,100188.16
2023-01-26T19:51:12.870Z,100190.66
2023-01-26T19:53:41.534Z,100178.91
2023-01-26T19:56:17.579Z,100182.22
2023-01-26T19:58:49.607Z,100179.13
2023-01-26T20:01:16.663Z,100177.16
2023-01-26T20:03:43.344Z,100173.00
2023-01-26T20:06:18.295Z,100190.16
2023-01-26T20:08:44.802Z,100183.75
2023-01-26T20:11:11.591Z,100191.19
2023-01-26T20:13:38.519Z,100188.84
2023-01-26T20:16:08.938Z,100192.94
2023-01-26T20:18:36.983Z,100196.00
2023-01-26T20:21:04.955Z,100199.97
2023-01-26T20:23:31.478Z,100207.78
2023-01-26T20:26:06.680Z,100195.94
2023-01-26T20:28:33.543Z,100188.56
2023-01-26T20:31:08.424Z,100191.75
2023-01-26T20:33:35.910Z,100194.66
2023-01-26T20:36:06.549Z,100195.75
2023-01-26T20:38:33.181Z,100186.19
2023-01-26T20:40:59.728Z,100195.75
2023-01-26T20:43:26.206Z,100188.44
2023-01-26T20:45:53.077Z,100187.09
2023-01-26T20:48:19.772Z,100193.59
2023-01-26T20:50:46.266Z,100200.34
2023-01-26T20:53:12.749Z,100218.47
2023-01-26T20:55:39.313Z,100211.22
2023-01-26T20:58:06.852Z,100215.44
2023-01-26T21:00:33.653Z,100216.63
2023-01-26T21:03:00.253Z,100236.72
2023-01-26T21:05:26.932Z,100254.00
2023-01-26T21:07:53.773Z,100255.91
2023-01-26T21:10:20.347Z,100260.28
2023-01-26T21:12:46.850Z,100254.91
2023-01-26T21:15:13.348Z,100262.59
2023-01-26T21:17:39.938Z,100267.31
2023-01-26T21:20:08.319Z,100271.47
2023-01-26T21:22:34.895Z,100274.56
2023-01-26T21:25:01.430Z,100280.03
2023-01-26T21:27:27.986Z,100281.13
2023-01-26T21:29:54.534Z,100275.19
2023-01-26T21:32:21.089Z,100272.03
2023-01-26T21:34:47.639Z,100274.88
2023-01-26T21:37:14.235Z,100267.63
2023-01-26T21:39:40.709Z,100262.91
2023-01-26T21:42:07.217Z,100259.41
2023-01-26T21:44:53.846Z,100264.25
2023-01-26T21:47:20.435Z,100275.19
2023-01-26T21:49:47.738Z,100271.25
2023-01-26T21:52:32.995Z,100280.34
2023-01-26T21:54:59.698Z,100277.28
2023-01-26T21:57:44.796Z,100277.63
2023-01-26T22:00:11.662Z,100270.72
2023-01-26T22:02:38.401Z,100276.09
2023-01-26T22:05:05.248Z,100267.97
2023-01-26T22:07:32.226Z,100272.13
2023-01-26T22:09:59.264Z,100272.69
2023-01-26T22:12:26.133Z,100277.09
2023-01-26T22:14:53.730Z,100265.78
2023-01-26T22:17:20.415Z,100265.31
2023-01-26T22:19:47.987Z,100264.56
2023-01-26T22:22:14.848Z,100272.03
2023-01-26T22:24:41.671Z,100272.34
2023-01-26T22:27:08.732Z,100269.84
2023-01-26T22:29:35.996Z,100274.09
2023-01-26T22:32:03.774Z,100278.94
2023-01-26T22:34:30.785Z,100276.19
2023-01-26T22:36:57.970Z,100270.03
2023-01-26T22:39:25.531Z,100275.97
2023-01-26T22:41:52.353Z,100272.13
2023-01-26T22:44:19.108Z,100263.78
2023-01-26T22:46:46.179Z,100268.50
2023-01-26T22:49:13.312Z,100258.75
2023-01-26T22:51:41.539Z,100257.84
2023-01-26T22:54:08.244Z,100255.13
2023-01-26T22:56:35.944Z,100253.91
2023-01-26T22:59:03.128Z,100255.69
2023-01-26T23:01:32.514Z,100253.38
2023-01-26T23:04:01.185Z,100248.88
2023-01-26T23:06:29.493Z,100238.56
2023-01-26T23:08:58.597Z,100247.75
2023-01-26T23:11:27.574Z,100238.56
2023-01-26T23:13:56.390Z,100240.97
2023-01-26T23:16:24.228Z,100240.31
2023-01-26T23:18:53.030Z,100240.97
2023-01-26T23:21:20.119Z,100234.19
2023-01-26T23:23:46.981Z,100234.94
2023-01-26T23:26:14.004Z,100224.75
2023-01-26T23:28:42.489Z,100223.00
2023-01-26T23:31:10.444Z,100227.03
2023-01-26T23:33:38.146Z,100225.84
2023-01-26T23:36:06.142Z,100225.63
2023-01-26T23:38:33.127Z,100219.47
2023-01-26T23:41:02.961Z,100219.47
2023-01-26T23:43:29.493Z,100213.75
2023-01-26T23:45:56.858Z,100215.66
2023-01-26T23:48:25.463Z,100205.34
2023-01-26T23:51:00.084Z,100211.03
2023-01-26T23:53:27.459Z,100203.66
2023-01-26T23:55:54.363Z,100207.28
2023-01-26T23:58:20.968Z,100205.97
